sensor_id;sensor_type;location;lat;lon;timestamp;temperature;humidity
74224;SHT31;62585;49.706;18.216;2023-03-01T00:01:25;-1.66;78.66
74224;SHT31;62585;49.706;18.216;2023-03-01T00:03:52;-1.64;78.86
74224;SHT31;62585;49.706;18.216;2023-03-01T00:06:19;-1.66;79.38
74224;SHT31;62585;49.706;18.216;2023-03-01T00:08:46;-1.67;79.40
74224;SHT31;62585;49.706;18.216;2023-03-01T00:11:17;-1.68;79.42
74224;SHT31;62585;49.706;18.216;2023-03-01T00:13:45;-1.72;79.08
74224;SHT31;62585;49.706;18.216;2023-03-01T00:16:14;-1.84;79.78
74224;SHT31;62585;49.706;18.216;2023-03-01T00:18:40;-2.05;80.53
74224;SHT31;62585;49.706;18.216;2023-03-01T00:21:06;-2.12;80.34
74224;SHT31;62585;49.706;18.216;2023-03-01T00:23:34;-2.05;80.68
74224;SHT31;62585;49.706;18.216;2023-03-01T00:25:59;-2.03;80.23
74224;SHT31;62585;49.706;18.216;2023-03-01T00:28:25;-2.01;80.05
74224;SHT31;62585;49.706;18.216;2023-03-01T00:30:51;-2.08;79.66
74224;SHT31;62585;49.706;18.216;2023-03-01T00:33:17;-2.02;80.02
74224;SHT31;62585;49.706;18.216;2023-03-01T00:35:43;-2.10;80.41
74224;SHT31;62585;49.706;18.216;2023-03-01T00:38:09;-2.02;80.18
74224;SHT31;62585;49.706;18.216;2023-03-01T00:40:35;-2.19;80.89
74224;SHT31;62585;49.706;18.216;2023-03-01T00:43:02;-2.25;81.25
74224;SHT31;62585;49.706;18.216;2023-03-01T00:45:29;-2.36;81.19
74224;SHT31;62585;49.706;18.216;2023-03-01T00:47:56;-2.36;81.46
74224;SHT31;62585;49.706;18.216;2023-03-01T00:50:23;-2.39;81.70
74224;SHT31;62585;49.706;18.216;2023-03-01T00:52:53;-2.35;81.34
74224;SHT31;62585;49.706;18.216;2023-03-01T00:55:19;-2.46;81.63
74224;SHT31;62585;49.706;18.216;2023-03-01T00:57:45;-2.43;81.33
74224;SHT31;62585;49.706;18.216;2023-03-01T01:00:11;-2.42;81.50
74224;SHT31;62585;49.706;18.216;2023-03-01T01:02:37;-2.37;81.05
74224;SHT31;62585;49.706;18.216;2023-03-01T01:05:03;-2.26;80.75
74224;SHT31;62585;49.706;18.216;2023-03-01T01:07:29;-2.25;80.17
74224;SHT31;62585;49.706;18.216;2023-03-01T01:09:55;-2.28;80.60
74224;SHT31;62585;49.706;18.216;2023-03-01T01:12:21;-2.29;80.89
74224;SHT31;62585;49.706;18.216;2023-03-01T01:14:47;-2.30;80.81
74224;SHT31;62585;49.706;18.216;2023-03-01T01:17:13;-2.28;80.76
74224;SHT31;62585;49.706;18.216;2023-03-01T01:19:39;-2.36;80.40
74224;SHT31;62585;49.706;18.216;2023-03-01T01:22:05;-2.36;80.82
74224;SHT31;62585;49.706;18.216;2023-03-01T01:24:31;-2.30;81.29
74224;SHT31;62585;49.706;18.216;2023-03-01T01:26:56;-2.30;81.31
74224;SHT31;62585;49.706;18.216;2023-03-01T01:29:22;-2.40;80.92
74224;SHT31;62585;49.706;18.216;2023-03-01T01:31:48;-2.36;80.78
74224;SHT31;62585;49.706;18.216;2023-03-01T01:34:16;-2.33;81.28
74224;SHT31;62585;49.706;18.216;2023-03-01T01:36:42;-2.42;82.14
74224;SHT31;62585;49.706;18.216;2023-03-01T01:39:10;-2.44;82.15
74224;SHT31;62585;49.706;18.216;2023-03-01T01:41:40;-2.67;82.32
74224;SHT31;62585;49.706;18.216;2023-03-01T01:49:22;-2.88;83.43
74224;SHT31;62585;49.706;18.216;2023-03-01T01:51:51;-2.84;82.78
74224;SHT31;62585;49.706;18.216;2023-03-01T01:54:29;-2.85;82.47
74224;SHT31;62585;49.706;18.216;2023-03-01T01:57:03;-2.70;82.05
74224;SHT31;62585;49.706;18.216;2023-03-01T01:59:30;-2.73;81.37
74224;SHT31;62585;49.706;18.216;2023-03-01T02:01:59;-2.70;81.78
74224;SHT31;62585;49.706;18.216;2023-03-01T02:04:25;-2.64;81.53
74224;SHT31;62585;49.706;18.216;2023-03-01T02:06:58;-2.63;81.80
74224;SHT31;62585;49.706;18.216;2023-03-01T02:09:25;-2.63;81.75
74224;SHT31;62585;49.706;18.216;2023-03-01T02:11:53;-2.57;81.84
74224;SHT31;62585;49.706;18.216;2023-03-01T02:14:19;-2.53;82.14
74224;SHT31;62585;49.706;18.216;2023-03-01T02:16:46;-2.49;81.37
74224;SHT31;62585;49.706;18.216;2023-03-01T02:19:34;-2.40;81.19
74224;SHT31;62585;49.706;18.216;2023-03-01T02:22:27;-2.40;80.95
74224;SHT31;62585;49.706;18.216;2023-03-01T02:25:19;-2.33;80.66
74224;SHT31;62585;49.706;18.216;2023-03-01T02:30:49;-2.52;81.83
74224;SHT31;62585;49.706;18.216;2023-03-01T02:33:36;-2.49;81.47
74224;SHT31;62585;49.706;18.216;2023-03-01T02:36:09;-2.49;81.11
74224;SHT31;62585;49.706;18.216;2023-03-01T02:38:36;-2.58;81.67
74224;SHT31;62585;49.706;18.216;2023-03-01T02:41:03;-2.73;82.90
74224;SHT31;62585;49.706;18.216;2023-03-01T02:43:31;-2.80;83.09
74224;SHT31;62585;49.706;18.216;2023-03-01T02:46:02;-2.85;83.70
74224;SHT31;62585;49.706;18.216;2023-03-01T02:48:50;-3.08;84.03
74224;SHT31;62585;49.706;18.216;2023-03-01T02:56:32;-3.44;84.42
74224;SHT31;62585;49.706;18.216;2023-03-01T02:58:58;-3.43;84.37
74224;SHT31;62585;49.706;18.216;2023-03-01T03:01:27;-3.36;83.98
74224;SHT31;62585;49.706;18.216;2023-03-01T03:04:11;-3.28;84.96
74224;SHT31;62585;49.706;18.216;2023-03-01T03:06:45;-3.20;84.12
74224;SHT31;62585;49.706;18.216;2023-03-01T03:09:13;-3.31;84.28
74224;SHT31;62585;49.706;18.216;2023-03-01T03:11:38;-3.17;84.05
74224;SHT31;62585;49.706;18.216;2023-03-01T03:14:07;-3.31;83.39
74224;SHT31;62585;49.706;18.216;2023-03-01T03:16:50;-3.29;83.92
74224;SHT31;62585;49.706;18.216;2023-03-01T03:19:18;-3.20;83.82
74224;SHT31;62585;49.706;18.216;2023-03-01T03:21:44;-3.23;83.84
74224;SHT31;62585;49.706;18.216;2023-03-01T03:24:10;-3.17;83.50
74224;SHT31;62585;49.706;18.216;2023-03-01T03:26:36;-3.19;83.14
74224;SHT31;62585;49.706;18.216;2023-03-01T03:29:02;-3.19;83.37
74224;SHT31;62585;49.706;18.216;2023-03-01T03:31:27;-3.15;83.57
74224;SHT31;62585;49.706;18.216;2023-03-01T03:33:54;-3.09;83.05
74224;SHT31;62585;49.706;18.216;2023-03-01T03:36:22;-3.08;83.07
74224;SHT31;62585;49.706;18.216;2023-03-01T03:38:49;-3.09;83.03
74224;SHT31;62585;49.706;18.216;2023-03-01T03:41:16;-3.17;83.13
74224;SHT31;62585;49.706;18.216;2023-03-01T03:43:42;-3.19;83.14
74224;SHT31;62585;49.706;18.216;2023-03-01T03:46:10;-3.13;83.20
74224;SHT31;62585;49.706;18.216;2023-03-01T03:48:41;-3.04;82.78
74224;SHT31;62585;49.706;18.216;2023-03-01T03:51:10;-3.04;82.06
74224;SHT31;62585;49.706;18.216;2023-03-01T03:53:37;-3.04;83.09
74224;SHT31;62585;49.706;18.216;2023-03-01T03:56:03;-3.11;84.50
74224;SHT31;62585;49.706;18.216;2023-03-01T03:58:29;-3.15;84.66
74224;SHT31;62585;49.706;18.216;2023-03-01T04:00:56;-3.04;84.37
74224;SHT31;62585;49.706;18.216;2023-03-01T04:03:24;-3.13;84.23
74224;SHT31;62585;49.706;18.216;2023-03-01T04:05:51;-3.32;84.35
74224;SHT31;62585;49.706;18.216;2023-03-01T04:08:21;-3.28;84.08
74224;SHT31;62585;49.706;18.216;2023-03-01T04:10:50;-3.28;83.97
74224;SHT31;62585;49.706;18.216;2023-03-01T04:13:19;-3.25;84.23
74224;SHT31;62585;49.706;18.216;2023-03-01T04:15:48;-3.15;84.30
74224;SHT31;62585;49.706;18.216;2023-03-01T04:18:15;-3.15;83.66
74224;SHT31;62585;49.706;18.216;2023-03-01T04:20:42;-3.31;84.81
74224;SHT31;62585;49.706;18.216;2023-03-01T04:23:15;-3.25;85.73
74224;SHT31;62585;49.706;18.216;2023-03-01T04:25:57;-3.26;85.23
74224;SHT31;62585;49.706;18.216;2023-03-01T04:28:23;-3.52;84.84
74224;SHT31;62585;49.706;18.216;2023-03-01T04:30:50;-3.63;85.34
74224;SHT31;62585;49.706;18.216;2023-03-01T04:33:16;-3.64;86.24
74224;SHT31;62585;49.706;18.216;2023-03-01T04:35:42;-3.54;86.05
74224;SHT31;62585;49.706;18.216;2023-03-01T04:38:08;-3.39;85.69
74224;SHT31;62585;49.706;18.216;2023-03-01T04:40:34;-3.36;84.43
74224;SHT31;62585;49.706;18.216;2023-03-01T04:43:00;-3.36;84.54
74224;SHT31;62585;49.706;18.216;2023-03-01T04:45:26;-3.81;84.73
74224;SHT31;62585;49.706;18.216;2023-03-01T04:47:53;-3.94;85.06
74224;SHT31;62585;49.706;18.216;2023-03-01T04:50:19;-3.94;85.67
74224;SHT31;62585;49.706;18.216;2023-03-01T04:52:49;-3.99;85.43
74224;SHT31;62585;49.706;18.216;2023-03-01T04:55:15;-4.02;86.59
74224;SHT31;62585;49.706;18.216;2023-03-01T04:57:41;-3.94;86.09
74224;SHT31;62585;49.706;18.216;2023-03-01T05:00:10;-3.87;85.53
74224;SHT31;62585;49.706;18.216;2023-03-01T05:05:13;-3.68;86.50
74224;SHT31;62585;49.706;18.216;2023-03-01T05:07:39;-3.73;86.32
74224;SHT31;62585;49.706;18.216;2023-03-01T05:10:05;-3.59;85.55
74224;SHT31;62585;49.706;18.216;2023-03-01T05:12:31;-3.57;86.30
74224;SHT31;62585;49.706;18.216;2023-03-01T05:14:57;-3.59;85.84
74224;SHT31;62585;49.706;18.216;2023-03-01T05:17:24;-3.53;85.98
74224;SHT31;62585;49.706;18.216;2023-03-01T05:19:49;-3.60;85.45
74224;SHT31;62585;49.706;18.216;2023-03-01T05:22:16;-3.74;85.16
74224;SHT31;62585;49.706;18.216;2023-03-01T05:24:41;-3.78;85.07
74224;SHT31;62585;49.706;18.216;2023-03-01T05:27:07;-3.81;84.88
74224;SHT31;62585;49.706;18.216;2023-03-01T05:29:33;-3.78;85.75
74224;SHT31;62585;49.706;18.216;2023-03-01T05:32:01;-3.78;85.31
74224;SHT31;62585;49.706;18.216;2023-03-01T05:34:33;-3.73;84.72
74224;SHT31;62585;49.706;18.216;2023-03-01T05:36:59;-3.88;85.61
74224;SHT31;62585;49.706;18.216;2023-03-01T05:39:26;-3.90;86.10
74224;SHT31;62585;49.706;18.216;2023-03-01T05:41:54;-3.77;86.64
74224;SHT31;62585;49.706;18.216;2023-03-01T05:44:21;-3.67;86.28
74224;SHT31;62585;49.706;18.216;2023-03-01T05:46:47;-3.71;85.85
74224;SHT31;62585;49.706;18.216;2023-03-01T05:49:14;-3.81;86.08
74224;SHT31;62585;49.706;18.216;2023-03-01T05:51:41;-3.70;85.83
74224;SHT31;62585;49.706;18.216;2023-03-01T05:54:08;-3.71;85.71
74224;SHT31;62585;49.706;18.216;2023-03-01T05:56:36;-3.66;85.67
74224;SHT31;62585;49.706;18.216;2023-03-01T05:59:03;-3.56;85.51
74224;SHT31;62585;49.706;18.216;2023-03-01T06:01:34;-3.44;85.76
74224;SHT31;62585;49.706;18.216;2023-03-01T06:04:00;-3.42;85.02
74224;SHT31;62585;49.706;18.216;2023-03-01T06:06:26;-3.42;86.23
74224;SHT31;62585;49.706;18.216;2023-03-01T06:08:53;-3.52;86.41
74224;SHT31;62585;49.706;18.216;2023-03-01T06:11:20;-3.42;85.59
74224;SHT31;62585;49.706;18.216;2023-03-01T06:13:46;-3.32;85.57
74224;SHT31;62585;49.706;18.216;2023-03-01T06:16:13;-3.28;85.85
74224;SHT31;62585;49.706;18.216;2023-03-01T06:18:39;-3.17;85.81
74224;SHT31;62585;49.706;18.216;2023-03-01T06:21:06;-3.16;85.87
74224;SHT31;62585;49.706;18.216;2023-03-01T06:23:33;-3.11;85.72
74224;SHT31;62585;49.706;18.216;2023-03-01T06:25:59;-3.08;85.87
74224;SHT31;62585;49.706;18.216;2023-03-01T06:28:25;-2.98;85.60
74224;SHT31;62585;49.706;18.216;2023-03-01T06:30:51;-2.91;85.79
74224;SHT31;62585;49.706;18.216;2023-03-01T06:33:18;-2.89;85.49
74224;SHT31;62585;49.706;18.216;2023-03-01T06:35:46;-2.80;85.42
74224;SHT31;62585;49.706;18.216;2023-03-01T06:38:12;-2.74;85.48
74224;SHT31;62585;49.706;18.216;2023-03-01T06:40:40;-2.58;85.05
74224;SHT31;62585;49.706;18.216;2023-03-01T06:43:06;-2.49;85.47
74224;SHT31;62585;49.706;18.216;2023-03-01T06:45:33;-2.44;85.06
74224;SHT31;62585;49.706;18.216;2023-03-01T06:48:06;-2.35;84.99
74224;SHT31;62585;49.706;18.216;2023-03-01T06:50:33;-2.28;84.91
74224;SHT31;62585;49.706;18.216;2023-03-01T06:52:59;-2.18;84.85
74224;SHT31;62585;49.706;18.216;2023-03-01T06:55:25;-2.03;84.41
74224;SHT31;62585;49.706;18.216;2023-03-01T06:57:55;-1.92;84.59
74224;SHT31;62585;49.706;18.216;2023-03-01T07:00:22;-1.92;83.82
74224;SHT31;62585;49.706;18.216;2023-03-01T07:02:48;-1.87;83.73
74224;SHT31;62585;49.706;18.216;2023-03-01T07:05:14;-1.85;84.21
74224;SHT31;62585;49.706;18.216;2023-03-01T07:07:40;-1.78;83.60
74224;SHT31;62585;49.706;18.216;2023-03-01T07:10:06;-1.61;83.34
74224;SHT31;62585;49.706;18.216;2023-03-01T07:12:32;-1.56;82.78
74224;SHT31;62585;49.706;18.216;2023-03-01T07:14:58;-1.43;82.17
74224;SHT31;62585;49.706;18.216;2023-03-01T07:17:24;-1.50;81.67
74224;SHT31;62585;49.706;18.216;2023-03-01T07:19:50;-1.40;81.54
74224;SHT31;62585;49.706;18.216;2023-03-01T07:22:15;-1.22;82.32
74224;SHT31;62585;49.706;18.216;2023-03-01T07:24:42;-1.06;80.78
74224;SHT31;62585;49.706;18.216;2023-03-01T07:27:07;-0.96;80.52
74224;SHT31;62585;49.706;18.216;2023-03-01T07:29:33;-0.87;80.19
74224;SHT31;62585;49.706;18.216;2023-03-01T07:32:02;-0.70;80.57
74224;SHT31;62585;49.706;18.216;2023-03-01T07:34:28;-0.57;80.58
74224;SHT31;62585;49.706;18.216;2023-03-01T07:36:54;-0.43;79.12
74224;SHT31;62585;49.706;18.216;2023-03-01T07:39:20;-0.32;77.63
74224;SHT31;62585;49.706;18.216;2023-03-01T07:41:45;-0.32;77.76
74224;SHT31;62585;49.706;18.216;2023-03-01T07:44:11;-0.17;78.88
74224;SHT31;62585;49.706;18.216;2023-03-01T07:46:37;-0.09;78.16
74224;SHT31;62585;49.706;18.216;2023-03-01T07:49:03;-0.06;77.57
74224;SHT31;62585;49.706;18.216;2023-03-01T07:51:29;0.08;77.37
74224;SHT31;62585;49.706;18.216;2023-03-01T07:53:55;0.25;76.95
74224;SHT31;62585;49.706;18.216;2023-03-01T07:56:21;0.41;75.52
74224;SHT31;62585;49.706;18.216;2023-03-01T07:58:47;0.43;75.39
74224;SHT31;62585;49.706;18.216;2023-03-01T08:01:16;0.72;75.92
74224;SHT31;62585;49.706;18.216;2023-03-01T08:03:43;0.77;75.20
74224;SHT31;62585;49.706;18.216;2023-03-01T08:06:10;0.74;75.14
74224;SHT31;62585;49.706;18.216;2023-03-01T08:08:43;0.77;75.65
74224;SHT31;62585;49.706;18.216;2023-03-01T08:11:14;0.97;75.54
74224;SHT31;62585;49.706;18.216;2023-03-01T08:13:41;1.11;75.11
74224;SHT31;62585;49.706;18.216;2023-03-01T08:16:15;1.08;76.19
74224;SHT31;62585;49.706;18.216;2023-03-01T08:18:42;1.29;75.59
74224;SHT31;62585;49.706;18.216;2023-03-01T08:21:12;1.29;73.06
74224;SHT31;62585;49.706;18.216;2023-03-01T08:23:39;1.34;73.24
74224;SHT31;62585;49.706;18.216;2023-03-01T08:28:33;1.60;72.36
74224;SHT31;62585;49.706;18.216;2023-03-01T08:30:59;1.79;71.63
74224;SHT31;62585;49.706;18.216;2023-03-01T08:33:25;1.96;71.76
74224;SHT31;62585;49.706;18.216;2023-03-01T08:35:50;1.98;71.58
74224;SHT31;62585;49.706;18.216;2023-03-01T08:38:16;2.07;70.55
74224;SHT31;62585;49.706;18.216;2023-03-01T08:40:42;2.41;69.04
74224;SHT31;62585;49.706;18.216;2023-03-01T08:43:08;2.41;69.91
74224;SHT31;62585;49.706;18.216;2023-03-01T08:45:33;2.46;69.46
74224;SHT31;62585;49.706;18.216;2023-03-01T08:47:59;2.59;68.67
74224;SHT31;62585;49.706;18.216;2023-03-01T08:50:24;2.79;68.16
74224;SHT31;62585;49.706;18.216;2023-03-01T08:52:50;2.93;67.96
74224;SHT31;62585;49.706;18.216;2023-03-01T08:55:16;3.07;66.75
74224;SHT31;62585;49.706;18.216;2023-03-01T08:57:43;3.34;66.74
74224;SHT31;62585;49.706;18.216;2023-03-01T09:00:10;3.22;65.94
74224;SHT31;62585;49.706;18.216;2023-03-01T09:02:36;3.36;67.48
74224;SHT31;62585;49.706;18.216;2023-03-01T09:05:02;3.66;66.82
74224;SHT31;62585;49.706;18.216;2023-03-01T09:07:28;3.72;67.85
74224;SHT31;62585;49.706;18.216;2023-03-01T09:09:54;3.90;67.53
74224;SHT31;62585;49.706;18.216;2023-03-01T09:12:21;3.99;64.79
74224;SHT31;62585;49.706;18.216;2023-03-01T09:14:47;3.99;62.54
74224;SHT31;62585;49.706;18.216;2023-03-01T09:17:12;3.97;64.23
74224;SHT31;62585;49.706;18.216;2023-03-01T09:19:38;4.04;64.30
74224;SHT31;62585;49.706;18.216;2023-03-01T09:22:04;4.08;64.77
74224;SHT31;62585;49.706;18.216;2023-03-01T09:24:30;4.25;64.21
74224;SHT31;62585;49.706;18.216;2023-03-01T09:26:56;4.61;65.86
74224;SHT31;62585;49.706;18.216;2023-03-01T09:29:23;4.80;64.00
74224;SHT31;62585;49.706;18.216;2023-03-01T09:31:49;4.86;62.53
74224;SHT31;62585;49.706;18.216;2023-03-01T09:34:14;5.01;62.48
74224;SHT31;62585;49.706;18.216;2023-03-01T09:36:49;5.13;64.43
74224;SHT31;62585;49.706;18.216;2023-03-01T09:39:15;5.10;61.07
74224;SHT31;62585;49.706;18.216;2023-03-01T09:42:10;4.75;61.35
74224;SHT31;62585;49.706;18.216;2023-03-01T09:47:16;4.65;62.22
74224;SHT31;62585;49.706;18.216;2023-03-01T09:49:45;4.92;62.12
74224;SHT31;62585;49.706;18.216;2023-03-01T09:55:30;5.55;61.00
74224;SHT31;62585;49.706;18.216;2023-03-01T10:00:47;5.81;58.02
74224;SHT31;62585;49.706;18.216;2023-03-01T10:03:19;5.89;59.37
74224;SHT31;62585;49.706;18.216;2023-03-01T10:05:56;6.10;57.15
74224;SHT31;62585;49.706;18.216;2023-03-01T10:08:36;6.11;57.00
74224;SHT31;62585;49.706;18.216;2023-03-01T10:11:18;6.14;55.00
74224;SHT31;62585;49.706;18.216;2023-03-01T10:13:57;6.37;56.70
74224;SHT31;62585;49.706;18.216;2023-03-01T10:16:36;6.21;55.99
74224;SHT31;62585;49.706;18.216;2023-03-01T10:19:05;5.93;55.13
74224;SHT31;62585;49.706;18.216;2023-03-01T10:21:38;5.83;57.04
74224;SHT31;62585;49.706;18.216;2023-03-01T10:24:17;6.36;56.41
74224;SHT31;62585;49.706;18.216;2023-03-01T10:26:57;6.33;56.27
74224;SHT31;62585;49.706;18.216;2023-03-01T10:29:37;6.13;55.03
74224;SHT31;62585;49.706;18.216;2023-03-01T10:32:04;6.78;56.28
74224;SHT31;62585;49.706;18.216;2023-03-01T10:34:34;6.77;53.76
74224;SHT31;62585;49.706;18.216;2023-03-01T10:37:12;6.75;52.97
74224;SHT31;62585;49.706;18.216;2023-03-01T10:39:55;7.12;52.09
74224;SHT31;62585;49.706;18.216;2023-03-01T10:42:31;6.96;52.55
74224;SHT31;62585;49.706;18.216;2023-03-01T10:44:58;7.06;52.13
74224;SHT31;62585;49.706;18.216;2023-03-01T10:47:26;6.85;52.11
74224;SHT31;62585;49.706;18.216;2023-03-01T10:49:53;6.95;51.50
74224;SHT31;62585;49.706;18.216;2023-03-01T10:52:22;7.03;51.50
74224;SHT31;62585;49.706;18.216;2023-03-01T10:54:54;7.23;52.22
74224;SHT31;62585;49.706;18.216;2023-03-01T10:57:33;7.12;50.67
74224;SHT31;62585;49.706;18.216;2023-03-01T11:00:21;7.33;51.83
74224;SHT31;62585;49.706;18.216;2023-03-01T11:02:50;7.34;51.91
74224;SHT31;62585;49.706;18.216;2023-03-01T11:05:20;7.57;50.13
74224;SHT31;62585;49.706;18.216;2023-03-01T11:10:21;7.64;50.38
74224;SHT31;62585;49.706;18.216;2023-03-01T11:12:46;7.88;49.67
74224;SHT31;62585;49.706;18.216;2023-03-01T11:15:22;7.93;48.71
74224;SHT31;62585;49.706;18.216;2023-03-01T11:17:48;8.02;50.84
74224;SHT31;62585;49.706;18.216;2023-03-01T11:22:51;8.47;49.48
74224;SHT31;62585;49.706;18.216;2023-03-01T11:25:19;8.33;48.74
74224;SHT31;62585;49.706;18.216;2023-03-01T11:27:49;8.06;48.93
74224;SHT31;62585;49.706;18.216;2023-03-01T11:30:26;8.34;50.00
74224;SHT31;62585;49.706;18.216;2023-03-01T11:33:11;8.13;49.63
74224;SHT31;62585;49.706;18.216;2023-03-01T11:35:44;8.50;50.07
74224;SHT31;62585;49.706;18.216;2023-03-01T11:38:25;8.92;49.36
74224;SHT31;62585;49.706;18.216;2023-03-01T11:41:18;8.98;49.87
74224;SHT31;62585;49.706;18.216;2023-03-01T11:43:56;9.27;49.28
74224;SHT31;62585;49.706;18.216;2023-03-01T11:52:08;8.68;48.85
74224;SHT31;62585;49.706;18.216;2023-03-01T12:03:43;8.88;47.17
74224;SHT31;62585;49.706;18.216;2023-03-01T12:25:41;9.73;43.42
74224;SHT31;62585;49.706;18.216;2023-03-01T12:28:16;9.83;44.07
74224;SHT31;62585;49.706;18.216;2023-03-01T12:31:05;9.87;44.12
74224;SHT31;62585;49.706;18.216;2023-03-01T12:42:26;10.45;41.21
74224;SHT31;62585;49.706;18.216;2023-03-01T12:47:42;10.74;41.54
74224;SHT31;62585;49.706;18.216;2023-03-01T12:52:56;10.14;41.01
74224;SHT31;62585;49.706;18.216;2023-03-01T12:58:04;10.02;42.77
74224;SHT31;62585;49.706;18.216;2023-03-01T13:06:28;10.53;40.35
74224;SHT31;62585;49.706;18.216;2023-03-01T13:11:42;10.41;39.36
74224;SHT31;62585;49.706;18.216;2023-03-01T13:16:49;10.80;39.95
74224;SHT31;62585;49.706;18.216;2023-03-01T13:19:21;10.63;39.55
74224;SHT31;62585;49.706;18.216;2023-03-01T13:21:48;10.80;39.41
74224;SHT31;62585;49.706;18.216;2023-03-01T13:24:37;10.71;40.04
74224;SHT31;62585;49.706;18.216;2023-03-01T13:29:49;10.87;39.21
74224;SHT31;62585;49.706;18.216;2023-03-01T13:37:43;11.43;37.81
74224;SHT31;62585;49.706;18.216;2023-03-01T13:42:44;10.87;39.69
74224;SHT31;62585;49.706;18.216;2023-03-01T13:45:21;11.15;39.95
74224;SHT31;62585;49.706;18.216;2023-03-01T13:47:52;11.11;38.94
74224;SHT31;62585;49.706;18.216;2023-03-01T13:50:22;11.45;38.60
74224;SHT31;62585;49.706;18.216;2023-03-01T13:52:59;11.15;38.49
74224;SHT31;62585;49.706;18.216;2023-03-01T13:55:32;10.71;39.15
74224;SHT31;62585;49.706;18.216;2023-03-01T13:58:03;10.56;38.90
74224;SHT31;62585;49.706;18.216;2023-03-01T14:00:37;10.87;39.70
74224;SHT31;62585;49.706;18.216;2023-03-01T14:05:39;10.76;41.05
74224;SHT31;62585;49.706;18.216;2023-03-01T14:08:13;10.81;40.79
74224;SHT31;62585;49.706;18.216;2023-03-01T14:16:20;10.64;39.78
74224;SHT31;62585;49.706;18.216;2023-03-01T14:19:18;10.60;38.56
74224;SHT31;62585;49.706;18.216;2023-03-01T14:21:47;10.53;39.30
74224;SHT31;62585;49.706;18.216;2023-03-01T14:24:21;10.43;38.70
74224;SHT31;62585;49.706;18.216;2023-03-01T14:26:49;10.43;40.15
74224;SHT31;62585;49.706;18.216;2023-03-01T14:31:50;10.66;39.96
74224;SHT31;62585;49.706;18.216;2023-03-01T14:34:21;10.80;40.29
74224;SHT31;62585;49.706;18.216;2023-03-01T14:36:48;10.70;39.20
74224;SHT31;62585;49.706;18.216;2023-03-01T14:39:19;10.39;40.18
74224;SHT31;62585;49.706;18.216;2023-03-01T14:41:45;10.14;40.14
74224;SHT31;62585;49.706;18.216;2023-03-01T14:44:16;10.02;41.46
74224;SHT31;62585;49.706;18.216;2023-03-01T14:46:46;10.09;41.25
74224;SHT31;62585;49.706;18.216;2023-03-01T14:49:15;9.90;41.64
74224;SHT31;62585;49.706;18.216;2023-03-01T14:51:49;9.83;41.66
74224;SHT31;62585;49.706;18.216;2023-03-01T14:58:52;9.47;42.50
74224;SHT31;62585;49.706;18.216;2023-03-01T15:01:18;9.43;42.19
74224;SHT31;62585;49.706;18.216;2023-03-01T15:03:49;9.71;41.54
74224;SHT31;62585;49.706;18.216;2023-03-01T15:06:18;9.84;39.82
74224;SHT31;62585;49.706;18.216;2023-03-01T15:08:50;9.67;39.87
74224;SHT31;62585;49.706;18.216;2023-03-01T15:11:37;9.39;41.15
74224;SHT31;62585;49.706;18.216;2023-03-01T15:14:29;9.27;40.82
74224;SHT31;62585;49.706;18.216;2023-03-01T15:17:03;9.36;42.08
74224;SHT31;62585;49.706;18.216;2023-03-01T15:19:29;9.63;41.16
74224;SHT31;62585;49.706;18.216;2023-03-01T15:21:56;9.30;41.40
74224;SHT31;62585;49.706;18.216;2023-03-01T15:24:25;9.04;42.51
74224;SHT31;62585;49.706;18.216;2023-03-01T15:26:56;8.91;43.13
74224;SHT31;62585;49.706;18.216;2023-03-01T15:29:28;8.95;43.99
74224;SHT31;62585;49.706;18.216;2023-03-01T15:31:58;8.81;43.63
74224;SHT31;62585;49.706;18.216;2023-03-01T15:34:29;9.04;43.74
74224;SHT31;62585;49.706;18.216;2023-03-01T15:36:58;8.98;45.82
74224;SHT31;62585;49.706;18.216;2023-03-01T15:42:17;8.29;48.80
74224;SHT31;62585;49.706;18.216;2023-03-01T15:47:35;8.09;50.79
74224;SHT31;62585;49.706;18.216;2023-03-01T15:50:04;8.03;51.34
74224;SHT31;62585;49.706;18.216;2023-03-01T15:52:35;7.81;52.51
74224;SHT31;62585;49.706;18.216;2023-03-01T15:55:25;7.68;52.60
74224;SHT31;62585;49.706;18.216;2023-03-01T15:58:17;7.53;52.62
74224;SHT31;62585;49.706;18.216;2023-03-01T16:00:44;7.34;53.38
74224;SHT31;62585;49.706;18.216;2023-03-01T16:03:11;7.03;53.51
74224;SHT31;62585;49.706;18.216;2023-03-01T16:05:38;6.63;55.15
74224;SHT31;62585;49.706;18.216;2023-03-01T16:08:05;6.48;55.36
74224;SHT31;62585;49.706;18.216;2023-03-01T16:10:33;6.45;55.53
74224;SHT31;62585;49.706;18.216;2023-03-01T16:12:59;6.33;56.28
74224;SHT31;62585;49.706;18.216;2023-03-01T16:15:30;6.19;56.52
74224;SHT31;62585;49.706;18.216;2023-03-01T16:17:56;6.14;56.94
74224;SHT31;62585;49.706;18.216;2023-03-01T16:20:23;6.00;57.42
74224;SHT31;62585;49.706;18.216;2023-03-01T16:22:50;5.85;58.11
74224;SHT31;62585;49.706;18.216;2023-03-01T16:25:18;5.55;58.84
74224;SHT31;62585;49.706;18.216;2023-03-01T16:27:46;5.38;59.12
74224;SHT31;62585;49.706;18.216;2023-03-01T16:30:13;5.16;59.84
74224;SHT31;62585;49.706;18.216;2023-03-01T16:32:40;5.00;60.57
74224;SHT31;62585;49.706;18.216;2023-03-01T16:35:07;5.13;60.15
74224;SHT31;62585;49.706;18.216;2023-03-01T16:37:34;4.89;60.42
74224;SHT31;62585;49.706;18.216;2023-03-01T16:40:00;4.83;60.85
74224;SHT31;62585;49.706;18.216;2023-03-01T16:42:26;4.83;60.98
74224;SHT31;62585;49.706;18.216;2023-03-01T16:44:57;4.80;60.75
74224;SHT31;62585;49.706;18.216;2023-03-01T16:47:23;4.61;61.50
74224;SHT31;62585;49.706;18.216;2023-03-01T16:49:52;4.51;61.35
74224;SHT31;62585;49.706;18.216;2023-03-01T16:52:19;4.48;61.35
74224;SHT31;62585;49.706;18.216;2023-03-01T16:54:44;4.40;61.64
74224;SHT31;62585;49.706;18.216;2023-03-01T16:57:10;4.33;62.04
74224;SHT31;62585;49.706;18.216;2023-03-01T16:59:36;4.14;62.55
74224;SHT31;62585;49.706;18.216;2023-03-01T17:02:04;4.28;61.59
74224;SHT31;62585;49.706;18.216;2023-03-01T17:04:31;4.31;61.38
74224;SHT31;62585;49.706;18.216;2023-03-01T17:06:57;4.41;61.17
74224;SHT31;62585;49.706;18.216;2023-03-01T17:09:22;4.30;61.53
74224;SHT31;62585;49.706;18.216;2023-03-01T17:11:49;4.16;61.99
74224;SHT31;62585;49.706;18.216;2023-03-01T17:14:15;4.03;62.46
74224;SHT31;62585;49.706;18.216;2023-03-01T17:16:42;3.97;62.65
74224;SHT31;62585;49.706;18.216;2023-03-01T17:19:08;4.06;62.57
74224;SHT31;62585;49.706;18.216;2023-03-01T17:21:34;3.86;62.85
74224;SHT31;62585;49.706;18.216;2023-03-01T17:24:00;4.01;62.44
74224;SHT31;62585;49.706;18.216;2023-03-01T17:26:26;4.03;62.35
74224;SHT31;62585;49.706;18.216;2023-03-01T17:28:54;3.96;62.55
74224;SHT31;62585;49.706;18.216;2023-03-01T17:31:20;3.90;62.58
74224;SHT31;62585;49.706;18.216;2023-03-01T17:33:46;3.82;63.24
74224;SHT31;62585;49.706;18.216;2023-03-01T17:36:12;3.79;63.25
74224;SHT31;62585;49.706;18.216;2023-03-01T17:38:38;3.70;63.58
74224;SHT31;62585;49.706;18.216;2023-03-01T17:41:04;3.68;63.49